KGEG/GEG METAR and TAF weather

Enter ICAO airport designator
Station Type Date Time Source
KGEG METAR 2023/02/04 02:53 UTC NOAA

KGEG 040253Z 20011KT 10SM SCT060 OVC090 04/M02 A2999 RMK AO2 SLP175 60000 T00441022 50008


Station Type Date Time Source
KGEG Decoded METAR 2023/02/04 02:53 UTC NOAA

SPOKANE INTERNATIONAL AIRPORT , WA, United States (KGEG) 47-37N 117-32W 735M
Feb 03, 2023 - 09:53 PM EST / 2023.02.04 0253 UTC
Wind: from the SSW (200 degrees) at 13 MPH (11 KT):0
Visibility: 10 mile(s):0
Sky conditions: overcast
Temperature: 39.9 F (4.4 C)
Dew Point: 28.0 F (-2.2 C)
Relative Humidity: 62%
Pressure (altimeter): 29.99 in. Hg (1015 hPa)
Pressure tendency: 0.02 inches (0.8 hPa) higher than three hours ago
ob: KGEG 040253Z 20011KT 10SM SCT060 OVC090 04/M02 A2999 RMK AO2 SLP175 60000 T00441022 50008
cycle: 3

Station Type Date Time Source
KGEG TAF 2023/02/03 18:22 UTC NOAA

TAF KGEG 031720Z 0318/0418 16006KT P6SM BKN120
FM040000 19009KT P6SM VCSH SCT020 BKN050
FM040300 20016G20KT P6SM BKN050 PROB30 0403/0407 -RASN OVC020
FM040800 21014KT P6SM SCT025 BKN150
FM041000 20007KT 4SM BR OVC015
FM041400 19007KT 1 1/2SM BR OVC015

Example: see airport list